Time;durP1;ratioP1;P1;durP2;ratioP2;P2;SDS_P1;SDS_P2;PMS_P1;PMS_P2;Temp;Humidity;BMP_temperature;BMP_pressure;BME280_temperature;BME280_humidity;BME280_pressure;Samples;Min_cycle;Max_cycle;Signal;HPM_P1;HPM_P2
2023/11/29 00:02:16;;;;;;;15.90;7.03;;;-0.20;99.90;;;;;;5023606;28;20033;-69
2023/11/29 00:04:41;;;;;;;24.80;7.95;;;-0.20;99.90;;;;;;5035713;28;20804;-69
2023/11/29 00:07:07;;;;;;;18.58;8.15;;;;;;;;;;5036501;28;20029;-69
2023/11/29 00:09:33;;;;;;;16.42;6.30;;;-0.20;99.90;;;;;;5039148;28;20018;-69
2023/11/29 00:11:58;;;;;;;17.75;6.85;;;-0.20;99.90;;;;;;5045918;28;20031;-69
2023/11/29 00:14:24;;;;;;;20.65;7.10;;;-0.10;99.90;;;;;;5044244;28;20381;-69
2023/11/29 00:16:49;;;;;;;19.95;6.80;;;-0.10;99.90;;;;;;5027143;28;20031;-69
2023/11/29 00:19:15;;;;;;;19.80;7.68;;;-0.10;99.90;;;;;;5045976;28;20027;-69
2023/11/29 00:21:42;;;;;;;18.73;7.75;;;-0.10;99.90;;;;;;5031408;28;20039;-69
2023/11/29 00:24:08;;;;;;;18.10;7.28;;;-0.10;99.90;;;;;;5032981;28;20029;-70
2023/11/29 00:26:36;;;;;;;21.13;7.70;;;-0.10;99.90;;;;;;5048595;28;20025;-66
2023/11/29 00:29:02;;;;;;;15.27;6.63;;;-0.10;99.90;;;;;;5037623;28;20583;-68
2023/11/29 00:31:28;;;;;;;16.38;7.32;;;0.00;99.90;;;;;;5037259;28;20017;-69
2023/11/29 00:33:54;;;;;;;15.10;6.65;;;0.00;99.90;;;;;;5040895;28;20504;-69
2023/11/29 00:36:19;;;;;;;21.25;8.02;;;0.00;99.90;;;;;;5038826;28;20023;-69
2023/11/29 00:38:45;;;;;;;15.43;6.80;;;-0.10;99.90;;;;;;5039342;28;20102;-69
2023/11/29 00:41:11;;;;;;;12.98;5.68;;;-0.10;99.90;;;;;;5039677;28;20096;-69
2023/11/29 00:57:05;;;;;;;16.48;6.63;;;-0.10;99.90;;;;;;4808175;28;20095;-67
2023/11/29 00:59:30;;;;;;;19.92;7.90;;;-0.10;99.90;;;;;;4992565;28;20034;-67
2023/11/29 01:01:56;;;;;;;17.88;6.32;;;0.00;99.90;;;;;;5009608;28;20030;-68
2023/11/29 01:04:21;;;;;;;26.40;7.97;;;0.00;99.90;;;;;;5010684;28;20014;-67
2023/11/29 01:06:47;;;;;;;18.80;7.15;;;0.00;99.90;;;;;;5010806;28;20508;-68
2023/11/29 01:09:12;;;;;;;20.30;6.72;;;0.00;99.90;;;;;;5010229;28;20029;-69
2023/11/29 01:11:38;;;;;;;17.63;6.55;;;0.00;99.90;;;;;;5010906;28;20468;-68
2023/11/29 01:14:04;;;;;;;17.48;6.68;;;0.00;99.90;;;;;;4992691;28;20029;-68
2023/11/29 01:16:29;;;;;;;20.55;7.38;;;0.00;99.90;;;;;;5010535;28;20109;-67
2023/11/29 01:18:57;;;;;;;14.45;5.80;;;-0.10;99.90;;;;;;5010364;28;20030;-68
2023/11/29 01:21:23;;;;;;;18.35;7.30;;;-0.10;99.90;;;;;;4993052;28;20032;-68
2023/11/29 01:23:48;;;;;;;15.82;6.68;;;;;;;;;;5010709;28;20383;-67
2023/11/29 01:26:14;;;;;;;14.10;5.93;;;0.00;99.90;;;;;;5009918;28;20198;-67
2023/11/29 01:28:40;;;;;;;17.45;5.95;;;0.00;99.90;;;;;;5010357;28;20109;-67
2023/11/29 01:31:07;;;;;;;14.38;5.88;;;0.00;99.90;;;;;;5007752;28;20021;-67
2023/11/29 01:33:33;;;;;;;13.85;5.55;;;0.00;99.90;;;;;;5010341;28;20037;-67
2023/11/29 01:36:08;;;;;;;9.57;4.35;;;0.00;99.90;;;;;;5009910;28;20423;-67
2023/11/29 01:38:34;;;;;;;15.23;6.00;;;0.00;99.90;;;;;;5010820;28;20026;-68
2023/11/29 01:41:00;;;;;;;16.92;5.78;;;0.00;99.90;;;;;;5010121;28;20026;-68
2023/11/29 01:43:26;;;;;;;13.43;4.55;;;0.00;99.90;;;;;;5010469;28;20511;-68
2023/11/29 01:45:51;;;;;;;18.63;6.95;;;0.00;99.90;;;;;;5001537;28;20073;-68
2023/11/29 01:48:19;;;;;;;14.52;5.88;;;0.00;99.90;;;;;;4990482;28;20176;-68
2023/11/29 01:50:46;;;;;;;15.43;6.10;;;0.00;99.90;;;;;;4984873;28;20543;-68
2023/11/29 01:53:18;;;;;;;15.77;6.25;;;0.00;99.90;;;;;;4981100;28;20031;-68
2023/11/29 01:58:26;;;;;;;14.63;5.97;;;-0.10;99.90;;;;;;5058174;28;20950;-69
2023/11/29 02:00:53;;;;;;;12.38;5.13;;;-0.10;99.90;;;;;;5054036;28;20029;-68
2023/11/29 02:03:19;;;;;;;9.98;4.35;;;-0.10;99.90;;;;;;5054964;28;20028;-66
2023/11/29 02:05:46;;;;;;;10.23;4.63;;;0.00;99.90;;;;;;5056385;28;20104;-66
2023/11/29 02:08:13;;;;;;;17.50;6.38;;;0.00;99.90;;;;;;5053267;28;20434;-66
2023/11/29 02:10:39;;;;;;;15.50;5.50;;;0.10;99.90;;;;;;5055090;28;20033;-68
2023/11/29 02:13:05;;;;;;;19.20;6.95;;;0.00;99.90;;;;;;5054374;28;20033;-67
2023/11/29 02:15:31;;;;;;;15.30;5.70;;;0.00;99.90;;;;;;5056769;28;20035;-67
2023/11/29 02:17:56;;;;;;;17.25;5.97;;;0.00;99.90;;;;;;5050820;28;20404;-66
2023/11/29 02:20:24;;;;;;;16.95;6.97;;;0.00;99.90;;;;;;5055301;28;20027;-66
2023/11/29 02:23:01;;;;;;;12.43;5.18;;;0.00;99.90;;;;;;5054777;28;20025;-66
2023/11/29 02:25:26;;;;;;;14.07;6.15;;;0.00;99.90;;;;;;5051233;28;20021;-67
2023/11/29 02:27:52;;;;;;;14.95;6.72;;;0.00;99.90;;;;;;5057238;28;20043;-67
2023/11/29 02:30:17;;;;;;;19.23;6.00;;;0.00;99.90;;;;;;5050265;28;20464;-67
2023/11/29 02:32:43;;;;;;;17.67;6.30;;;0.00;99.90;;;;;;5055032;28;20032;-66
2023/11/29 02:35:09;;;;;;;20.20;6.00;;;0.00;99.90;;;;;;5056502;28;20565;-66
2023/11/29 02:37:34;;;;;;;14.77;5.90;;;0.00;99.90;;;;;;5052632;28;20029;-66
2023/11/29 02:40:01;;;;;;;14.02;5.65;;;0.10;99.90;;;;;;5054857;28;20021;-67
2023/11/29 02:42:26;;;;;;;17.67;6.28;;;0.10;99.90;;;;;;5054045;28;20052;-67
2023/11/29 02:44:52;;;;;;;12.88;5.80;;;0.20;99.90;;;;;;5055230;28;20155;-67
2023/11/29 02:47:17;;;;;;;15.98;6.47;;;0.20;99.90;;;;;;5048875;28;20380;-67
2023/11/29 02:49:43;;;;;;;17.63;6.82;;;0.30;99.90;;;;;;5056800;28;20035;-67
2023/11/29 02:52:09;;;;;;;19.38;6.82;;;0.30;99.90;;;;;;5052940;28;20031;-67
2023/11/29 02:54:35;;;;;;;18.55;6.03;;;0.30;99.90;;;;;;5056640;28;20102;-67
2023/11/29 02:57:01;;;;;;;17.15;6.50;;;0.30;99.90;;;;;;5052759;28;20049;-67
2023/11/29 02:59:26;;;;;;;11.20;4.90;;;0.30;99.90;;;;;;5056238;28;20025;-67
2023/11/29 03:01:52;;;;;;;15.98;6.47;;;0.40;99.90;;;;;;5051662;28;20024;-67
2023/11/29 03:04:17;;;;;;;19.65;6.90;;;0.40;99.90;;;;;;5055661;28;20492;-68
2023/11/29 03:06:43;;;;;;;20.00;7.10;;;0.40;99.90;;;;;;5051906;28;20033;-67
2023/11/29 03:09:09;;;;;;;15.75;6.75;;;0.40;99.90;;;;;;5045869;28;20419;-69
2023/11/29 03:11:37;;;;;;;15.23;6.32;;;0.50;99.90;;;;;;5040289;28;20029;-69
2023/11/29 03:14:03;;;;;;;16.30;7.57;;;0.50;99.90;;;;;;5043370;28;20376;-69
2023/11/29 03:16:28;;;;;;;22.83;8.18;;;0.50;99.90;;;;;;5041520;28;20029;-69
2023/11/29 03:18:54;;;;;;;16.15;7.63;;;0.50;99.90;;;;;;5040162;28;20022;-69
2023/11/29 03:21:19;;;;;;;22.80;7.65;;;0.50;99.90;;;;;;5042156;28;20078;-69
2023/11/29 03:23:45;;;;;;;20.50;7.72;;;0.50;99.90;;;;;;5041057;28;20072;-70
2023/11/29 03:26:11;;;;;;;19.30;6.57;;;0.50;99.90;;;;;;5042237;28;20014;-70
2023/11/29 03:28:36;;;;;;;18.80;7.30;;;0.50;99.90;;;;;;5040732;28;20491;-69
2023/11/29 03:31:02;;;;;;;14.70;6.18;;;0.50;99.90;;;;;;5041130;28;20025;-69
2023/11/29 03:33:28;;;;;;;20.20;7.20;;;0.50;99.90;;;;;;5042416;28;20021;-69
2023/11/29 03:35:53;;;;;;;19.42;8.00;;;0.50;99.90;;;;;;5038904;28;20148;-69
2023/11/29 03:38:19;;;;;;;17.63;7.32;;;0.50;99.90;;;;;;5039616;28;20108;-70
2023/11/29 03:40:44;;;;;;;14.77;5.68;;;0.50;99.90;;;;;;5035821;28;20044;-69
2023/11/29 03:43:10;;;;;;;20.08;7.68;;;0.50;99.90;;;;;;5039512;28;20104;-69
2023/11/29 03:45:35;;;;;;;21.20;8.43;;;0.50;99.90;;;;;;5043008;28;20391;-69
2023/11/29 03:48:01;;;;;;;22.30;7.53;;;0.50;99.90;;;;;;5038251;28;20025;-69
2023/11/29 03:50:27;;;;;;;23.67;8.23;;;0.40;99.90;;;;;;5043452;28;20036;-69
2023/11/29 03:52:52;;;;;;;19.98;8.77;;;0.50;99.90;;;;;;5043356;28;20055;-69
2023/11/29 03:55:18;;;;;;;14.55;5.30;;;0.50;99.90;;;;;;5039520;28;20021;-69
2023/11/29 03:57:43;;;;;;;13.68;5.68;;;0.40;99.90;;;;;;5042209;28;20052;-69
2023/11/29 04:00:09;;;;;;;18.95;6.72;;;0.50;99.90;;;;;;5041361;28;20056;-70
2023/11/29 04:02:35;;;;;;;16.73;7.35;;;0.40;99.90;;;;;;5039689;28;20025;-69
2023/11/29 04:05:01;;;;;;;16.52;6.82;;;0.40;99.90;;;;;;5039206;28;20017;-69
2023/11/29 04:07:27;;;;;;;21.52;8.05;;;0.30;99.90;;;;;;5043588;28;20055;-69
2023/11/29 04:09:52;;;;;;;22.20;8.45;;;0.30;99.90;;;;;;5043848;28;20025;-69
2023/11/29 04:12:18;;;;;;;21.40;9.13;;;0.30;99.90;;;;;;5038415;28;20017;-69
2023/11/29 04:14:43;;;;;;;23.27;10.10;;;0.30;99.90;;;;;;5039443;28;20025;-69
2023/11/29 04:17:09;;;;;;;30.75;10.70;;;0.20;99.90;;;;;;5044991;28;20542;-69
2023/11/29 04:19:35;;;;;;;26.58;10.40;;;0.20;99.90;;;;;;5037774;28;20017;-70
2023/11/29 04:22:01;;;;;;;27.95;10.65;;;0.10;99.90;;;;;;5039685;28;20040;-70
2023/11/29 04:24:28;;;;;;;27.35;9.93;;;0.10;99.90;;;;;;5038483;28;20026;-70
2023/11/29 04:26:54;;;;;;;28.10;10.90;;;0.10;99.90;;;;;;5039875;28;20068;-70
2023/11/29 04:29:20;;;;;;;32.47;12.52;;;0.10;99.90;;;;;;5038091;28;20103;-70
2023/11/29 04:31:45;;;;;;;28.30;10.48;;;0.10;99.90;;;;;;5039212;28;20036;-70
2023/11/29 04:34:11;;;;;;;31.55;11.75;;;0.10;99.90;;;;;;5040744;28;20422;-70
2023/11/29 04:36:36;;;;;;;29.80;11.23;;;0.10;99.90;;;;;;5038373;28;20022;-70
2023/11/29 04:39:05;;;;;;;29.45;11.40;;;0.10;99.90;;;;;;5040843;28;20112;-70
2023/11/29 04:41:30;;;;;;;23.58;10.25;;;0.10;99.90;;;;;;5038751;28;20021;-70
2023/11/29 04:43:56;;;;;;;23.42;8.65;;;0.10;99.90;;;;;;5040506;28;20028;-70
2023/11/29 04:46:22;;;;;;;25.58;8.18;;;0.10;99.90;;;;;;5036781;28;20087;-70
2023/11/29 04:48:47;;;;;;;25.20;9.55;;;0.10;99.90;;;;;;5041212;28;20042;-70
2023/11/29 04:51:14;;;;;;;27.13;9.80;;;0.10;99.90;;;;;;5039794;28;20103;-70
2023/11/29 04:53:39;;;;;;;22.38;8.85;;;0.00;99.90;;;;;;5037179;28;20025;-70
2023/11/29 04:56:06;;;;;;;19.23;7.70;;;0.00;99.90;;;;;;5038526;28;20538;-70
2023/11/29 04:58:36;;;;;;;27.25;10.23;;;0.00;99.90;;;;;;5036269;28;20048;-70
2023/11/29 05:01:01;;;;;;;26.58;9.57;;;0.00;99.90;;;;;;5032842;28;20391;-70
2023/11/29 05:03:27;;;;;;;21.50;8.05;;;0.00;99.90;;;;;;5038802;28;20025;-70
2023/11/29 05:05:53;;;;;;;21.63;8.95;;;0.10;99.90;;;;;;5038931;28;20055;-70
2023/11/29 05:08:19;;;;;;;22.63;9.00;;;0.10;99.90;;;;;;5039124;28;20037;-70
2023/11/29 05:10:45;;;;;;;23.33;9.48;;;0.10;99.90;;;;;;5038414;28;20115;-70
2023/11/29 05:13:11;;;;;;;19.33;7.47;;;0.10;99.90;;;;;;5036902;28;20053;-70
2023/11/29 05:15:36;;;;;;;18.40;6.85;;;0.10;99.90;;;;;;5039528;28;20052;-70
2023/11/29 05:18:03;;;;;;;22.88;9.40;;;0.10;99.90;;;;;;5039583;28;20056;-70
2023/11/29 05:20:31;;;;;;;30.83;10.77;;;0.10;99.90;;;;;;5038182;28;20540;-70
2023/11/29 05:22:57;;;;;;;25.85;13.10;;;0.10;99.90;;;;;;5038830;28;20187;-70
2023/11/29 05:25:23;;;;;;;26.70;10.25;;;0.10;99.90;;;;;;5038809;28;20044;-70
2023/11/29 05:27:49;;;;;;;23.73;9.73;;;0.10;99.90;;;;;;5039096;28;20110;-69
2023/11/29 05:30:15;;;;;;;24.70;9.55;;;0.20;99.90;;;;;;5035558;28;20033;-70
2023/11/29 05:32:41;;;;;;;24.00;8.15;;;0.10;99.90;;;;;;5042005;28;20572;-70
2023/11/29 05:35:07;;;;;;;22.55;10.10;;;0.20;99.90;;;;;;5039043;28;20171;-70
2023/11/29 05:37:32;;;;;;;27.08;10.45;;;0.20;99.90;;;;;;5037928;28;20091;-70
2023/11/29 05:39:58;;;;;;;22.33;8.80;;;0.20;99.90;;;;;;5038796;28;20423;-70
2023/11/29 05:42:23;;;;;;;16.52;6.85;;;0.20;99.90;;;;;;5039348;28;20028;-70
2023/11/29 05:44:49;;;;;;;21.92;9.40;;;0.20;99.90;;;;;;5037922;28;20025;-70
2023/11/29 05:47:16;;;;;;;23.23;9.43;;;0.20;99.90;;;;;;5034951;28;20036;-70
2023/11/29 05:49:44;;;;;;;21.52;9.07;;;0.20;99.90;;;;;;5034809;28;20053;-70
2023/11/29 05:52:10;;;;;;;19.23;8.63;;;0.20;99.90;;;;;;5032501;28;20388;-70
2023/11/29 05:54:35;;;;;;;18.15;7.18;;;0.20;99.90;;;;;;5035165;28;20025;-70
2023/11/29 05:57:01;;;;;;;22.27;8.82;;;0.20;99.90;;;;;;5027788;28;20390;-70
2023/11/29 05:59:27;;;;;;;22.38;9.32;;;0.30;99.90;;;;;;5034313;28;20029;-70
2023/11/29 06:01:54;;;;;;;16.77;7.57;;;0.30;99.90;;;;;;5032158;28;20052;-70
2023/11/29 06:04:21;;;;;;;23.27;7.88;;;0.30;99.90;;;;;;5033063;28;20028;-70
2023/11/29 06:06:49;;;;;;;22.40;9.20;;;0.40;99.90;;;;;;5031264;28;20388;-70
2023/11/29 06:09:14;;;;;;;15.80;6.53;;;0.50;99.90;;;;;;5036832;28;20074;-70
2023/11/29 06:11:41;;;;;;;18.90;7.78;;;0.50;99.90;;;;;;5015783;28;20038;-70
2023/11/29 06:14:09;;;;;;;16.75;7.20;;;0.50;99.90;;;;;;5032689;28;20445;-70
2023/11/29 06:16:34;;;;;;;21.30;8.80;;;0.50;99.90;;;;;;5035777;28;20026;-69
2023/11/29 06:19:00;;;;;;;20.83;9.15;;;0.50;99.90;;;;;;5029110;28;20325;-69
2023/11/29 06:21:25;;;;;;;17.27;5.13;;;0.50;99.90;;;;;;5041022;28;20025;-69
2023/11/29 06:23:51;;;;;;;18.88;7.05;;;0.50;99.90;;;;;;5029992;28;20072;-69
2023/11/29 06:26:18;;;;;;;24.17;9.50;;;0.60;99.90;;;;;;5038485;28;20480;-69
2023/11/29 06:28:44;;;;;;;21.85;8.70;;;0.60;99.90;;;;;;5031304;28;20043;-69
2023/11/29 06:31:10;;;;;;;20.58;7.72;;;0.60;99.90;;;;;;5028517;28;20026;-69
2023/11/29 06:33:35;;;;;;;22.73;9.95;;;0.60;99.90;;;;;;5035362;28;20033;-69
2023/11/29 06:36:02;;;;;;;28.50;11.57;;;0.60;99.90;;;;;;5037366;28;20091;-69
2023/11/29 06:38:28;;;;;;;24.45;8.80;;;0.70;99.90;;;;;;5022245;28;20058;-68
2023/11/29 06:40:54;;;;;;;20.95;6.95;;;0.70;99.90;;;;;;5027649;28;20046;-68
2023/11/29 06:43:19;;;;;;;16.73;6.70;;;0.70;99.90;;;;;;5028192;28;20083;-68
2023/11/29 06:45:48;;;;;;;25.38;10.45;;;0.80;99.90;;;;;;5037151;28;20029;-68
2023/11/29 06:48:15;;;;;;;28.75;10.57;;;0.80;99.90;;;;;;5034607;28;20038;-68
2023/11/29 06:50:42;;;;;;;25.90;9.75;;;0.80;99.90;;;;;;5041261;28;20488;-68
2023/11/29 06:53:08;;;;;;;31.05;12.98;;;0.80;99.90;;;;;;5037139;28;20021;-68
2023/11/29 06:55:34;;;;;;;33.10;13.45;;;0.80;99.90;;;;;;5039004;28;20582;-68
2023/11/29 06:57:59;;;;;;;23.48;9.27;;;0.80;99.90;;;;;;5035119;28;20053;-68
2023/11/29 07:00:26;;;;;;;28.77;11.18;;;0.80;99.90;;;;;;5041556;28;20372;-68
2023/11/29 07:02:51;;;;;;;25.05;11.75;;;0.80;99.90;;;;;;5040213;28;20083;-68
2023/11/29 07:05:17;;;;;;;27.85;11.35;;;0.90;99.90;;;;;;5043330;28;20024;-69
2023/11/29 07:07:43;;;;;;;25.25;10.98;;;0.90;99.90;;;;;;5041640;28;20055;-69
2023/11/29 07:10:11;;;;;;;23.02;10.90;;;0.90;99.90;;;;;;5040966;28;20025;-68
2023/11/29 07:12:37;;;;;;;29.08;10.35;;;0.90;99.90;;;;;;5038304;28;20033;-68
2023/11/29 07:15:05;;;;;;;22.48;10.38;;;1.00;99.90;;;;;;5040690;28;20125;-68
2023/11/29 07:17:31;;;;;;;25.02;11.35;;;1.00;99.90;;;;;;5037364;28;20033;-68
2023/11/29 07:19:56;;;;;;;31.80;12.30;;;1.00;99.90;;;;;;5036569;28;20976;-69
2023/11/29 07:22:24;;;;;;;29.15;11.07;;;1.00;99.90;;;;;;5040897;28;20029;-68
2023/11/29 07:24:50;;;;;;;22.35;10.10;;;0.90;99.90;;;;;;5039541;28;20022;-68
2023/11/29 07:27:15;;;;;;;25.38;10.90;;;1.00;99.90;;;;;;5039131;28;20090;-68
2023/11/29 07:29:41;;;;;;;30.98;14.27;;;1.10;99.90;;;;;;5038908;28;20042;-69
2023/11/29 07:32:07;;;;;;;20.40;8.55;;;1.00;99.90;;;;;;5042575;28;20033;-69
2023/11/29 07:34:32;;;;;;;25.17;10.13;;;1.00;99.90;;;;;;5040388;28;20040;-69
2023/11/29 07:36:58;;;;;;;27.70;12.23;;;1.00;99.90;;;;;;5039852;28;20022;-69
2023/11/29 07:39:31;;;;;;;29.52;11.82;;;1.10;99.90;;;;;;5039219;28;20116;-69
2023/11/29 07:41:59;;;;;;;23.98;10.95;;;1.10;99.90;;;;;;5041839;28;20029;-69
2023/11/29 07:44:25;;;;;;;22.90;7.43;;;1.00;99.90;;;;;;5039151;28;20034;-69
2023/11/29 07:46:53;;;;;;;25.90;12.55;;;1.00;99.90;;;;;;5043672;28;20036;-69
2023/11/29 07:49:19;;;;;;;24.20;10.27;;;1.10;99.90;;;;;;5041786;28;20029;-71
2023/11/29 07:51:44;;;;;;;28.92;9.50;;;1.00;99.90;;;;;;5053180;28;20025;-71
2023/11/29 07:54:10;;;;;;;27.55;10.15;;;1.10;99.90;;;;;;5050023;28;20017;-71
2023/11/29 07:56:36;;;;;;;27.30;11.75;;;1.10;99.90;;;;;;5043901;28;20114;-71
2023/11/29 07:59:02;;;;;;;23.92;12.70;;;1.10;99.90;;;;;;5052061;28;20017;-70
2023/11/29 08:01:27;;;;;;;21.38;9.50;;;1.10;99.90;;;;;;5040663;28;20026;-71
2023/11/29 08:03:53;;;;;;;19.85;7.88;;;1.10;99.90;;;;;;5049466;28;20036;-71
2023/11/29 08:06:21;;;;;;;23.83;11.95;;;1.10;99.90;;;;;;5049178;28;20025;-71
2023/11/29 08:08:47;;;;;;;23.13;9.10;;;1.10;99.90;;;;;;5052721;28;20025;-71
2023/11/29 08:11:13;;;;;;;24.33;9.98;;;1.10;99.90;;;;;;5046091;28;20068;-71
2023/11/29 08:13:41;;;;;;;20.42;7.90;;;1.10;99.90;;;;;;5049927;28;20033;-71
2023/11/29 08:16:07;;;;;;;22.17;10.00;;;1.10;99.90;;;;;;5045159;28;20022;-71
2023/11/29 08:18:34;;;;;;;25.10;9.02;;;1.20;99.90;;;;;;5043600;28;20048;-71
2023/11/29 08:21:00;;;;;;;28.55;12.48;;;1.20;99.90;;;;;;5051629;28;20036;-71
2023/11/29 08:23:26;;;;;;;26.55;10.00;;;1.20;99.90;;;;;;5047186;28;20025;-71
2023/11/29 08:25:51;;;;;;;18.98;8.57;;;1.20;99.90;;;;;;5046661;28;20022;-71
2023/11/29 08:28:17;;;;;;;20.65;10.07;;;1.20;99.90;;;;;;5049638;28;20043;-71
2023/11/29 08:30:42;;;;;;;22.20;9.63;;;1.20;99.90;;;;;;5049967;28;20086;-71
2023/11/29 08:33:08;;;;;;;28.50;10.35;;;1.20;99.90;;;;;;5049743;28;20360;-71
2023/11/29 08:35:34;;;;;;;23.30;9.85;;;1.20;99.90;;;;;;5050936;28;20055;-71
2023/11/29 08:38:00;;;;;;;17.63;8.63;;;;;;;;;;5047127;28;20353;-71
2023/11/29 08:40:26;;;;;;;27.08;11.23;;;1.20;99.90;;;;;;5047529;28;20368;-72
2023/11/29 08:42:52;;;;;;;20.23;9.00;;;1.20;99.90;;;;;;5047779;28;20022;-71
2023/11/29 08:45:18;;;;;;;24.17;10.30;;;1.20;99.90;;;;;;5046125;28;20013;-72
2023/11/29 08:47:46;;;;;;;25.45;10.00;;;1.20;99.90;;;;;;5048545;28;20518;-71
2023/11/29 08:50:11;;;;;;;23.27;10.27;;;1.20;99.90;;;;;;5047317;28;20460;-71
2023/11/29 08:52:39;;;;;;;17.08;7.45;;;1.20;99.90;;;;;;5048703;28;20100;-71
2023/11/29 08:55:05;;;;;;;25.70;10.40;;;1.10;99.90;;;;;;5047826;28;20123;-72
2023/11/29 08:57:31;;;;;;;25.77;11.75;;;1.10;99.90;;;;;;5049105;28;20042;-71
2023/11/29 08:59:57;;;;;;;21.02;9.45;;;1.10;99.90;;;;;;5040480;28;20438;-69
2023/11/29 09:02:25;;;;;;;19.02;9.02;;;1.10;99.90;;;;;;5036093;28;20493;-69
2023/11/29 09:04:51;;;;;;;21.88;10.00;;;1.10;99.90;;;;;;5039004;28;20033;-69
2023/11/29 09:07:17;;;;;;;19.27;9.15;;;1.10;99.90;;;;;;5039121;28;20033;-69
2023/11/29 09:09:47;;;;;;;22.92;9.23;;;1.10;99.90;;;;;;5038924;28;20033;-69
2023/11/29 09:12:16;;;;;;;23.70;10.52;;;1.20;99.90;;;;;;5037736;28;20115;-69
2023/11/29 09:14:43;;;;;;;23.50;8.43;;;1.20;99.90;;;;;;5039905;28;20025;-69
2023/11/29 09:17:09;;;;;;;24.40;10.70;;;1.20;99.90;;;;;;5039170;28;20053;-69
2023/11/29 09:19:35;;;;;;;25.05;10.27;;;1.30;99.90;;;;;;5037931;28;20575;-69
2023/11/29 09:22:05;;;;;;;19.67;6.70;;;1.20;99.90;;;;;;5037344;28;20040;-69
2023/11/29 09:24:31;;;;;;;21.25;11.35;;;1.30;99.90;;;;;;5038036;28;20025;-69
2023/11/29 09:26:59;;;;;;;29.60;11.52;;;1.20;99.90;;;;;;5036092;28;20037;-69
2023/11/29 09:29:28;;;;;;;22.20;8.95;;;1.20;99.90;;;;;;5039153;28;20036;-69
2023/11/29 09:31:54;;;;;;;26.10;12.63;;;1.30;99.90;;;;;;5031453;28;20484;-69
2023/11/29 09:34:24;;;;;;;34.30;17.42;;;1.30;99.90;;;;;;5040252;28;20029;-69
2023/11/29 09:36:50;;;;;;;30.83;12.75;;;1.30;99.90;;;;;;5037771;28;20536;-69
2023/11/29 09:39:17;;;;;;;22.20;10.95;;;1.40;99.90;;;;;;5038809;28;20056;-69
2023/11/29 09:41:46;;;;;;;24.45;11.05;;;1.40;99.90;;;;;;5037778;28;20025;-69
2023/11/29 09:44:15;;;;;;;27.10;12.05;;;1.40;99.90;;;;;;5040818;28;20027;-69
2023/11/29 09:46:42;;;;;;;19.33;8.48;;;1.30;99.90;;;;;;5040198;28;20029;-68
2023/11/29 09:49:08;;;;;;;24.73;13.38;;;1.40;99.90;;;;;;5037461;28;20036;-69
2023/11/29 09:51:33;;;;;;;31.48;12.73;;;1.40;99.90;;;;;;5040574;28;20079;-69
2023/11/29 09:53:59;;;;;;;25.45;8.90;;;1.40;99.90;;;;;;5038798;28;20427;-69
2023/11/29 09:56:27;;;;;;;18.88;8.13;;;1.40;99.90;;;;;;5034546;28;20124;-69
2023/11/29 09:58:53;;;;;;;27.25;11.07;;;1.40;99.90;;;;;;5038379;28;20477;-69
2023/11/29 10:01:18;;;;;;;20.58;10.00;;;1.50;99.90;;;;;;5036940;28;20060;-69
2023/11/29 10:04:00;;;;;;;23.27;9.98;;;1.40;99.90;;;;;;5038797;28;20374;-69
2023/11/29 10:06:26;;;;;;;26.35;12.15;;;1.50;99.90;;;;;;5033641;28;20014;-69
2023/11/29 10:08:52;;;;;;;23.27;11.98;;;1.50;99.90;;;;;;5040446;28;20379;-69
2023/11/29 10:11:17;;;;;;;22.52;9.90;;;1.50;99.90;;;;;;5036694;28;20304;-69
2023/11/29 10:13:43;;;;;;;24.65;9.35;;;1.50;99.90;;;;;;5038800;28;20021;-69
2023/11/29 10:16:09;;;;;;;26.08;10.05;;;1.60;99.90;;;;;;5036985;28;20467;-69
2023/11/29 10:18:36;;;;;;;23.58;9.55;;;1.60;99.90;;;;;;5040873;28;20030;-69
2023/11/29 10:21:02;;;;;;;27.73;12.07;;;1.60;99.90;;;;;;5043593;28;20021;-69
2023/11/29 10:23:28;;;;;;;27.90;15.23;;;1.60;99.90;;;;;;5040616;28;20025;-69
2023/11/29 10:25:56;;;;;;;26.33;11.27;;;1.70;99.90;;;;;;5042300;28;20021;-69
2023/11/29 10:28:22;;;;;;;17.55;6.57;;;1.70;99.90;;;;;;5039491;28;20155;-68
2023/11/29 10:30:47;;;;;;;19.58;9.25;;;1.60;99.90;;;;;;5041397;28;20115;-68
2023/11/29 10:33:13;;;;;;;27.13;12.15;;;1.60;99.90;;;;;;5041300;28;20038;-68
2023/11/29 10:35:40;;;;;;;23.20;11.43;;;1.70;99.90;;;;;;5043542;28;20032;-68
2023/11/29 10:38:14;;;;;;;27.45;8.63;;;1.70;99.90;;;;;;5043251;28;20029;-68
2023/11/29 10:40:42;;;;;;;25.77;11.13;;;1.80;99.90;;;;;;5040896;28;20037;-69
2023/11/29 10:43:14;;;;;;;19.00;9.38;;;1.80;99.90;;;;;;5041761;28;20483;-68
2023/11/29 10:45:41;;;;;;;21.35;9.98;;;1.80;99.90;;;;;;5043589;28;20029;-68
2023/11/29 10:48:21;;;;;;;23.90;8.25;;;1.80;99.90;;;;;;5043816;28;20028;-68
2023/11/29 10:50:48;;;;;;;23.60;9.50;;;1.80;99.90;;;;;;5039436;28;20025;-68
2023/11/29 10:53:15;;;;;;;25.55;9.25;;;1.80;99.90;;;;;;5042174;28;20055;-68
2023/11/29 10:55:42;;;;;;;24.17;11.63;;;1.80;99.90;;;;;;5041141;28;20018;-68
2023/11/29 10:58:27;;;;;;;18.25;6.45;;;1.90;99.90;;;;;;5040569;28;20049;-68
2023/11/29 11:00:53;;;;;;;21.40;10.15;;;2.00;99.90;;;;;;5035828;28;20022;-69
2023/11/29 11:03:53;;;;;;;22.50;9.52;;;1.90;99.90;;;;;;5041976;28;20017;-68
2023/11/29 11:06:21;;;;;;;28.75;11.25;;;1.90;99.90;;;;;;5038524;28;20029;-68
2023/11/29 11:08:47;;;;;;;25.33;11.07;;;1.90;99.90;;;;;;5041494;28;20507;-68
2023/11/29 11:11:47;;;;;;;16.25;7.28;;;1.80;99.90;;;;;;5040278;28;20061;-68
2023/11/29 11:14:17;;;;;;;24.90;13.07;;;1.80;99.90;;;;;;5040930;28;20026;-68
2023/11/29 11:16:57;;;;;;;23.85;9.73;;;1.80;99.90;;;;;;5041497;28;20061;-68
2023/11/29 11:19:35;;;;;;;20.73;9.50;;;1.80;99.90;;;;;;5038168;28;20080;-70
2023/11/29 11:22:16;;;;;;;21.13;10.00;;;1.80;99.90;;;;;;5042817;28;20116;-70
2023/11/29 11:25:13;;;;;;;23.63;9.80;;;1.90;99.90;;;;;;5041775;28;20073;-70
2023/11/29 11:27:49;;;;;;;20.23;7.68;;;1.80;99.90;;;;;;5043366;28;20029;-70
2023/11/29 11:30:14;;;;;;;30.88;11.32;;;1.90;99.90;;;;;;5042601;28;20040;-70
2023/11/29 11:32:40;;;;;;;24.05;9.80;;;1.90;99.90;;;;;;5044254;28;20029;-70
2023/11/29 11:35:21;;;;;;;25.63;9.00;;;2.10;99.90;;;;;;5042273;28;20772;-71
2023/11/29 11:37:49;;;;;;;20.33;8.20;;;2.20;99.90;;;;;;5041057;28;20038;-70
2023/11/29 11:40:16;;;;;;;17.23;8.73;;;2.30;99.90;;;;;;5041250;28;20061;-70
2023/11/29 11:42:43;;;;;;;21.33;11.52;;;2.40;99.90;;;;;;5046300;28;20103;-70
2023/11/29 11:45:09;;;;;;;17.95;8.18;;;2.40;99.90;;;;;;5044610;28;20032;-70
2023/11/29 11:47:36;;;;;;;15.68;6.13;;;2.40;99.90;;;;;;5049216;28;20032;-70
2023/11/29 11:50:02;;;;;;;21.73;8.43;;;2.40;99.90;;;;;;5044590;28;20029;-70
2023/11/29 11:52:28;;;;;;;21.33;9.60;;;2.40;99.90;;;;;;5043330;28;20025;-70
2023/11/29 11:54:53;;;;;;;23.40;9.70;;;2.40;99.90;;;;;;5046322;28;20554;-70
2023/11/29 11:57:19;;;;;;;19.25;8.02;;;2.40;99.90;;;;;;5045893;28;20041;-70
2023/11/29 11:59:45;;;;;;;17.05;8.13;;;2.50;99.90;;;;;;5039866;28;20025;-70
2023/11/29 12:02:13;;;;;;;20.20;9.00;;;2.50;99.90;;;;;;5042342;28;20025;-70
2023/11/29 12:04:39;;;;;;;15.13;6.68;;;2.50;99.90;;;;;;5042554;28;20072;-70
2023/11/29 12:07:06;;;;;;;26.85;10.73;;;2.40;99.90;;;;;;5042268;28;20029;-70
2023/11/29 12:09:33;;;;;;;14.25;6.53;;;2.40;99.90;;;;;;5046865;28;20108;-70
2023/11/29 12:12:07;;;;;;;19.05;8.20;;;2.30;99.90;;;;;;5044285;28;20048;-70
2023/11/29 12:14:33;;;;;;;18.50;8.75;;;2.30;99.90;;;;;;5041858;28;20021;-70
2023/11/29 12:16:59;;;;;;;22.48;9.35;;;2.20;99.90;;;;;;5046250;28;20059;-70
2023/11/29 12:19:24;;;;;;;28.75;9.57;;;2.20;99.90;;;;;;5038500;28;20017;-70
2023/11/29 12:21:50;;;;;;;17.02;5.90;;;2.30;99.90;;;;;;5046895;28;20104;-70
2023/11/29 12:24:16;;;;;;;19.55;7.93;;;2.30;99.90;;;;;;5046300;28;20025;-70
2023/11/29 12:26:41;;;;;;;15.60;7.10;;;2.30;99.90;;;;;;5043526;28;20037;-70
2023/11/29 12:29:08;;;;;;;18.13;6.35;;;2.30;99.90;;;;;;5040254;28;20056;-71
2023/11/29 12:31:40;;;;;;;16.50;6.57;;;2.30;99.90;;;;;;5040559;28;20076;-71
2023/11/29 12:34:06;;;;;;;15.63;7.25;;;2.30;99.90;;;;;;5035601;28;20044;-70
2023/11/29 12:36:31;;;;;;;14.65;5.97;;;2.40;99.90;;;;;;5040491;28;20025;-70
2023/11/29 12:39:01;;;;;;;23.60;8.40;;;2.40;99.90;;;;;;5039416;28;20041;-70
2023/11/29 12:41:26;;;;;;;17.92;6.45;;;2.50;99.90;;;;;;5040361;28;20081;-70
2023/11/29 12:43:52;;;;;;;15.82;5.95;;;2.50;99.90;;;;;;5037944;28;20489;-70
2023/11/29 12:46:18;;;;;;;23.15;9.18;;;2.50;99.90;;;;;;5041123;28;20025;-70
2023/11/29 12:48:44;;;;;;;19.83;8.20;;;2.50;99.90;;;;;;5041624;28;20029;-71
2023/11/29 12:51:13;;;;;;;11.13;4.50;;;2.60;99.90;;;;;;5039830;28;20373;-71
2023/11/29 12:53:43;;;;;;;15.63;7.18;;;2.70;99.90;;;;;;5039053;28;20064;-71
2023/11/29 12:56:08;;;;;;;11.52;4.32;;;2.70;99.90;;;;;;5038773;28;20026;-71
2023/11/29 12:58:37;;;;;;;14.20;5.43;;;2.70;99.90;;;;;;5039428;28;20055;-71